createdAt,value
2022-10-02T00:00:18.090Z,27.9
2022-10-02T00:02:23.852Z,31.2
2022-10-02T00:04:29.660Z,22.3
2022-10-02T00:06:35.686Z,29.3
2022-10-02T00:08:44.165Z,51.1
2022-10-02T00:12:55.742Z,44.2
2022-10-02T00:14:00.124Z,43.5
2022-10-02T00:16:05.947Z,42.9
2022-10-02T00:18:11.700Z,37.8
2022-10-02T00:20:17.456Z,46
2022-10-02T00:22:26.239Z,31.7
2022-10-02T00:24:32.002Z,27.6
2022-10-02T00:26:38.182Z,26.4
2022-10-02T00:28:43.557Z,18.6
2022-10-02T00:30:49.327Z,20.3
2022-10-02T00:32:55.122Z,10.6
2022-10-02T00:35:00.902Z,18.8
2022-10-02T00:37:09.684Z,13.6
2022-10-02T00:39:15.423Z,32.2
2022-10-02T00:41:21.208Z,33.3
2022-10-02T00:43:26.997Z,23.7
2022-10-02T00:45:32.825Z,27.1
2022-10-02T00:47:38.554Z,21.4
2022-10-02T00:49:44.355Z,19.4
2022-10-02T00:51:53.106Z,23.2
2022-10-02T00:53:58.877Z,15.6
2022-10-02T00:56:04.677Z,19.6
2022-10-02T00:58:10.442Z,16.4
2022-10-02T01:00:17.862Z,14.5
2022-10-02T01:02:23.617Z,15.9
2022-10-02T01:04:29.367Z,20.8
2022-10-02T01:06:38.463Z,8.4
2022-10-02T01:08:43.925Z,6.9
2022-10-02T01:10:49.707Z,8.4
2022-10-02T01:11:54.070Z,6.7
2022-10-02T01:13:59.881Z,6.7
2022-10-02T01:16:05.744Z,7.4
2022-10-02T01:18:11.450Z,18.2
2022-10-02T01:20:20.221Z,13.7
2022-10-02T01:22:26.009Z,16.9
2022-10-02T01:24:31.776Z,6.8
2022-10-02T01:26:37.964Z,9.1
2022-10-02T01:28:43.356Z,15.2
2022-10-02T01:30:49.146Z,16.7
2022-10-02T01:32:54.926Z,16.9
2022-10-02T01:35:03.682Z,12.7
2022-10-02T01:37:09.485Z,14.3
2022-10-02T01:39:15.269Z,12.1
2022-10-02T01:41:21.041Z,14
2022-10-02T01:43:26.834Z,16.3
2022-10-02T01:45:32.622Z,9.1
2022-10-02T01:47:38.393Z,20.4
2022-10-02T01:49:47.142Z,33.5
2022-10-02T01:51:52.932Z,17.8
2022-10-02T01:56:04.471Z,14.4
2022-10-02T01:58:10.254Z,14.2
2022-10-02T02:00:16.027Z,21.2
2022-10-02T02:02:21.815Z,9.2
2022-10-02T02:04:30.559Z,8.2
2022-10-02T02:06:36.634Z,33.9
2022-10-02T02:08:42.142Z,8
2022-10-02T02:09:46.504Z,22.3
2022-10-02T02:11:52.260Z,15.7
2022-10-02T02:13:58.040Z,25.7
2022-10-02T02:16:03.852Z,30.6
2022-10-02T02:18:12.561Z,25.1
2022-10-02T02:20:18.338Z,17.7
2022-10-02T02:22:24.114Z,26.6
2022-10-02T02:24:29.873Z,19.3
2022-10-02T02:26:35.980Z,21.4
2022-10-02T02:30:47.172Z,44.9
2022-10-02T02:32:56.065Z,15.4
2022-10-02T02:35:01.832Z,11
2022-10-02T02:37:07.707Z,24
2022-10-02T02:39:13.570Z,10.4
2022-10-02T02:43:25.093Z,21.8
2022-10-02T02:45:30.909Z,37.1
2022-10-02T02:47:39.618Z,28.2
2022-10-02T02:49:45.396Z,26.1
2022-10-02T02:51:51.264Z,47.1
2022-10-02T02:53:57.165Z,28.2
2022-10-02T02:56:02.891Z,19.3
2022-10-02T02:58:08.670Z,26.5
2022-10-02T03:00:14.419Z,44.3
2022-10-02T03:02:23.241Z,31
2022-10-02T03:06:35.153Z,33
2022-10-02T03:09:01.018Z,30.8
2022-10-02T03:11:06.764Z,22.7
2022-10-02T03:13:12.561Z,30.8
2022-10-02T03:15:21.296Z,49.5
2022-10-02T03:17:27.056Z,54.5
2022-10-02T03:19:32.825Z,56.3
2022-10-02T03:21:38.596Z,39.8
2022-10-02T03:23:44.350Z,32.3
2022-10-02T03:25:50.112Z,43.9
2022-10-02T03:27:55.934Z,41.1
2022-10-02T03:30:04.620Z,58.2
2022-10-02T03:32:10.391Z,29.7
2022-10-02T03:34:16.148Z,27.5
2022-10-02T03:38:27.700Z,37.5
2022-10-02T03:40:33.468Z,68.4
2022-10-02T03:42:39.331Z,50.1
2022-10-02T03:44:48.068Z,35.6
2022-10-02T03:46:53.914Z,30.9
2022-10-02T03:48:59.618Z,36.6
2022-10-02T03:51:05.386Z,35.9
2022-10-02T03:53:11.140Z,64.6
2022-10-02T03:59:31.419Z,33.3
2022-10-02T04:01:37.288Z,54.8
2022-10-02T04:03:43.031Z,47.1
2022-10-02T04:04:47.336Z,42.5
2022-10-02T04:06:53.137Z,52.9
2022-10-02T04:08:58.863Z,45.8
2022-10-02T04:11:04.642Z,38.9
2022-10-02T04:13:13.476Z,53.9
2022-10-02T04:15:19.237Z,72
2022-10-02T04:17:25.005Z,75.9
2022-10-02T04:21:36.546Z,63.2
2022-10-02T04:32:08.366Z,60.1
2022-10-02T04:34:14.116Z,44.6
2022-10-02T04:36:19.869Z,41.1
2022-10-02T04:38:25.653Z,27.8
2022-10-02T04:48:57.447Z,50.6
2022-10-02T04:51:03.231Z,56
2022-10-02T04:53:08.998Z,49.5
2022-10-02T04:55:14.876Z,44.8
2022-10-02T04:57:23.492Z,61.5
2022-10-02T04:59:29.303Z,58.4
2022-10-02T05:01:35.075Z,43.8
2022-10-02T05:02:39.430Z,52.1
2022-10-02T05:04:45.198Z,46.8
2022-10-02T05:06:51.010Z,46.2
2022-10-02T05:08:56.774Z,50.7
2022-10-02T05:11:05.523Z,55
2022-10-02T05:13:11.322Z,53
2022-10-02T05:15:17.107Z,28.7
2022-10-02T05:17:22.862Z,33.2
2022-10-02T05:19:28.633Z,32.4
2022-10-02T05:21:34.406Z,50.6
2022-10-02T05:23:40.158Z,51.2
2022-10-02T05:25:48.917Z,37.9
2022-10-02T05:27:54.700Z,34.5
2022-10-02T05:30:00.439Z,32.2
2022-10-02T05:32:06.209Z,50.6
2022-10-02T05:34:11.968Z,29.1
2022-10-02T05:36:17.732Z,36.5
2022-10-02T05:38:23.512Z,38.8
2022-10-02T05:40:32.265Z,43.9
2022-10-02T05:42:42.335Z,43.3
2022-10-02T05:44:43.797Z,39.1
2022-10-02T05:46:49.590Z,26
2022-10-02T05:48:55.323Z,34.5
2022-10-02T05:53:06.878Z,48.4
2022-10-02T05:55:15.624Z,77.4
2022-10-02T05:57:21.402Z,43.1
2022-10-02T05:59:27.190Z,48.6
2022-10-02T06:00:31.562Z,52.9
2022-10-02T06:02:39.491Z,41.3
2022-10-02T06:04:43.083Z,36
2022-10-02T06:08:57.623Z,45.4
2022-10-02T06:11:03.401Z,36.2
2022-10-02T06:13:09.171Z,52.3
2022-10-02T06:15:14.935Z,59.1
2022-10-02T06:17:20.728Z,59.7
2022-10-02T06:19:26.504Z,49.7
2022-10-02T06:21:32.274Z,42.6
2022-10-02T06:23:41.030Z,21.8
2022-10-02T06:25:46.786Z,37
2022-10-02T06:27:52.644Z,39
2022-10-02T06:29:58.334Z,35.7
2022-10-02T06:32:04.109Z,45.8
2022-10-02T06:34:09.866Z,67.2
2022-10-02T06:36:15.646Z,21.2
2022-10-02T06:38:24.418Z,40.7
2022-10-02T06:40:30.184Z,40.8
2022-10-02T06:42:35.940Z,40
2022-10-02T06:44:41.711Z,47
2022-10-02T06:46:51.237Z,47.1
2022-10-02T06:48:53.279Z,42
2022-10-02T06:53:07.818Z,42.6
2022-10-02T06:55:13.562Z,45.7
2022-10-02T06:59:50.684Z,39.3
2022-10-02T07:01:58.361Z,56.3
2022-10-02T07:04:03.820Z,42.4
2022-10-02T07:06:12.567Z,46
2022-10-02T07:08:18.341Z,35.1
2022-10-02T07:10:24.116Z,23.7
2022-10-02T07:12:29.897Z,32.3
2022-10-02T07:14:35.690Z,24.3
2022-10-02T07:16:41.675Z,46.1
2022-10-02T07:18:47.257Z,22.3
2022-10-02T07:20:55.981Z,28.6
2022-10-02T07:25:07.558Z,24.9
2022-10-02T07:27:13.327Z,30.9
2022-10-02T07:29:19.132Z,39.1
2022-10-02T07:31:24.988Z,38.4
2022-10-02T07:33:30.687Z,32.9
2022-10-02T07:35:39.484Z,49.4
2022-10-02T07:37:45.270Z,49
2022-10-02T07:39:51.041Z,40.6
2022-10-02T07:41:56.833Z,17.1
2022-10-02T07:44:02.627Z,20
2022-10-02T07:46:09.736Z,32.2
2022-10-02T07:48:14.185Z,30.4
2022-10-02T07:50:22.970Z,29
2022-10-02T07:52:28.769Z,16.2
2022-10-02T07:54:34.553Z,19
2022-10-02T07:55:38.991Z,10.4
2022-10-02T07:57:44.769Z,43.3
2022-10-02T08:01:56.395Z,17.7
2022-10-02T08:04:05.056Z,16.4
2022-10-02T08:08:16.668Z,14.1
2022-10-02T08:12:28.241Z,29.3
2022-10-02T08:14:34.062Z,20.2
2022-10-02T08:16:40.400Z,10.4
2022-10-02T08:18:48.639Z,7.1
2022-10-02T08:20:54.466Z,23.5
2022-10-02T08:23:00.246Z,10.2
2022-10-02T08:25:06.045Z,17.4
2022-10-02T08:27:11.870Z,18.4
2022-10-02T08:29:17.664Z,14.1
2022-10-02T08:31:23.638Z,15.3
2022-10-02T08:33:32.262Z,14.8
2022-10-02T08:35:38.277Z,24.3
2022-10-02T08:37:43.889Z,22.3
2022-10-02T08:39:49.716Z,8.4
2022-10-02T08:41:55.461Z,26.2
2022-10-02T08:44:01.253Z,9.7
2022-10-02T08:46:07.128Z,13.6
2022-10-02T08:48:15.818Z,11.9
2022-10-02T08:50:21.626Z,9.7
2022-10-02T08:52:27.435Z,35.1
2022-10-02T08:57:43.404Z,7.7
2022-10-02T08:59:49.245Z,12.3
2022-10-02T09:02:00.038Z,10.2
2022-10-02T09:04:03.731Z,22.1
2022-10-02T09:08:15.333Z,13.5
2022-10-02T09:12:26.914Z,26.2
2022-10-02T09:18:47.245Z,15.7
2022-10-02T09:20:53.059Z,33.5
2022-10-02T09:22:58.840Z,11.8
2022-10-02T09:25:04.658Z,13.6
2022-10-02T09:27:10.446Z,14.5
2022-10-02T09:29:16.241Z,9.7
2022-10-02T09:31:25.054Z,23.9
2022-10-02T09:33:30.798Z,11.8
2022-10-02T09:35:36.604Z,11.6
2022-10-02T09:37:42.388Z,19.9
2022-10-02T09:39:48.224Z,33.3
2022-10-02T09:41:53.980Z,20
2022-10-02T09:43:59.760Z,9.5
2022-10-02T09:46:08.642Z,9.6
2022-10-02T09:48:14.345Z,13.3
2022-10-02T09:50:20.141Z,20.1
2022-10-02T09:55:36.130Z,18.3
2022-10-02T09:57:41.913Z,8.2
2022-10-02T09:59:50.741Z,20.6
2022-10-02T10:01:56.497Z,25.4
2022-10-02T10:04:02.299Z,20.8
2022-10-02T10:06:08.094Z,20.9
2022-10-02T10:08:13.880Z,19.3
2022-10-02T10:10:19.666Z,13.6
2022-10-02T10:12:25.457Z,27
2022-10-02T10:14:34.223Z,15
2022-10-02T10:16:40.053Z,7.8
2022-10-02T10:18:45.849Z,21.8
2022-10-02T10:20:51.647Z,11.3
2022-10-02T10:22:57.469Z,14.2
2022-10-02T10:25:03.283Z,14.1
2022-10-02T10:27:09.057Z,25.4
2022-10-02T10:29:17.806Z,29.5
2022-10-02T10:31:23.707Z,11.2
2022-10-02T10:33:29.385Z,15.1
2022-10-02T10:35:35.165Z,13.6
2022-10-02T10:37:40.959Z,19.2
2022-10-02T10:39:46.737Z,5.5
2022-10-02T10:41:52.530Z,21.2
2022-10-02T10:44:01.320Z,9.4
2022-10-02T10:46:07.241Z,4
2022-10-02T10:48:12.891Z,13.1
2022-10-02T10:50:44.137Z,11
2022-10-02T10:52:49.916Z,13.5
2022-10-02T10:54:55.711Z,18
2022-10-02T10:57:04.474Z,10.3
2022-10-02T10:59:10.319Z,18.3
2022-10-02T11:01:16.129Z,6.2
2022-10-02T11:03:21.915Z,4
2022-10-02T11:05:27.713Z,12.8
2022-10-02T11:07:33.516Z,13.8
2022-10-02T11:09:39.305Z,8.6
2022-10-02T11:11:48.087Z,7.1
2022-10-02T11:13:53.859Z,14.6
2022-10-02T11:15:59.834Z,5.7
2022-10-02T11:18:05.457Z,16
2022-10-02T11:20:11.287Z,6.2
2022-10-02T11:22:17.059Z,6.4
2022-10-02T11:24:22.846Z,14.8
2022-10-02T11:26:31.612Z,7.9
2022-10-02T11:30:43.182Z,10.9
2022-10-02T11:32:49.018Z,9.8
2022-10-02T11:34:54.800Z,6.7
2022-10-02T11:37:00.605Z,8.3
2022-10-02T11:39:06.410Z,10.2
2022-10-02T11:41:15.188Z,14.9
2022-10-02T11:43:20.959Z,16.2
2022-10-02T11:46:31.162Z,7.2
2022-10-02T11:48:36.976Z,5.6
2022-10-02T11:50:42.777Z,15.4
2022-10-02T11:52:48.690Z,13.1
2022-10-02T11:54:57.338Z,4.1
2022-10-02T11:57:03.146Z,9.1
2022-10-02T11:59:08.945Z,11.9
2022-10-02T12:01:14.751Z,6.2
2022-10-02T12:03:20.685Z,15
2022-10-02T12:05:26.375Z,13
2022-10-02T12:07:32.163Z,10.3
2022-10-02T12:09:40.928Z,15.9
2022-10-02T12:11:46.746Z,18.9
2022-10-02T12:13:52.542Z,10.2
2022-10-02T12:15:58.343Z,7.5
2022-10-02T12:22:15.716Z,11.7
2022-10-02T12:24:24.520Z,25.7
2022-10-02T12:26:30.319Z,7.2
2022-10-02T12:28:36.124Z,4.6
2022-10-02T12:30:41.940Z,7.5
2022-10-02T12:34:53.509Z,16.4
2022-10-02T12:41:13.936Z,18.5
2022-10-02T12:43:19.725Z,19.5
2022-10-02T12:44:24.098Z,13.9
2022-10-02T12:46:29.917Z,19.8
2022-10-02T12:48:35.731Z,12
2022-10-02T12:50:41.520Z,14.6
2022-10-02T12:52:50.318Z,10.5
2022-10-02T12:54:56.103Z,8.4
2022-10-02T12:57:01.899Z,10
2022-10-02T12:59:07.691Z,17.8
2022-10-02T13:01:13.521Z,11.4
2022-10-02T13:03:19.384Z,11.6
2022-10-02T13:05:26.760Z,14.6
2022-10-02T13:07:35.478Z,8.2
2022-10-02T13:09:41.463Z,8
2022-10-02T13:11:47.107Z,11.4
2022-10-02T13:13:52.901Z,7.8
2022-10-02T13:15:58.692Z,20.4
2022-10-02T13:18:04.507Z,17.1
2022-10-02T13:22:19.116Z,8.5
2022-10-02T13:24:24.881Z,16.7
2022-10-02T13:26:30.672Z,8.8
2022-10-02T13:32:48.070Z,11.8
2022-10-02T13:34:53.891Z,10
2022-10-02T13:37:02.642Z,14.2
2022-10-02T13:39:08.435Z,7.6
2022-10-02T13:41:14.248Z,13.5
2022-10-02T13:42:18.663Z,11.5
2022-10-02T13:44:24.445Z,10.9
2022-10-02T13:46:30.262Z,17.8
2022-10-02T13:48:36.052Z,20.8
2022-10-02T13:50:44.806Z,6.8
2022-10-02T13:52:50.618Z,15.7
2022-10-02T13:54:56.439Z,13.7
2022-10-02T13:57:02.245Z,21.1
2022-10-02T13:59:08.047Z,16
2022-10-02T14:01:14.115Z,12.2
2022-10-02T14:03:19.656Z,8.6
2022-10-02T14:05:28.411Z,15.1
2022-10-02T14:07:34.226Z,14.8
2022-10-02T14:09:40.128Z,21.1
2022-10-02T14:11:45.835Z,9.4
2022-10-02T14:13:51.625Z,19.5
2022-10-02T14:15:57.439Z,11.7
2022-10-02T14:18:03.248Z,13.3
2022-10-02T14:20:12.015Z,11.2
2022-10-02T14:22:17.838Z,13.7
2022-10-02T14:24:23.589Z,8.7
2022-10-02T14:28:35.191Z,35.4
2022-10-02T14:32:46.806Z,13.1
2022-10-02T14:34:55.574Z,8.1
2022-10-02T14:37:01.387Z,20.9
2022-10-02T14:39:07.200Z,31.1
2022-10-02T14:41:38.965Z,12.6
2022-10-02T14:43:44.301Z,21.7
2022-10-02T14:45:50.120Z,14.4
2022-10-02T14:50:04.667Z,22.5
2022-10-02T14:56:22.108Z,8.8
2022-10-02T14:58:27.906Z,16.3
2022-10-02T15:04:48.277Z,19.1
2022-10-02T15:06:54.095Z,15
2022-10-02T15:11:05.717Z,16
2022-10-02T15:13:11.505Z,11.2
2022-10-02T15:15:17.316Z,11.6
2022-10-02T15:17:26.080Z,23.3
2022-10-02T15:19:31.903Z,24.4
2022-10-02T15:21:38.196Z,17.5
2022-10-02T15:23:43.513Z,17.8
2022-10-02T15:25:49.314Z,26.3
2022-10-02T15:27:55.158Z,11.9
2022-10-02T15:30:00.990Z,3.1
2022-10-02T15:32:09.717Z,13.5
2022-10-02T15:37:25.703Z,9.8
2022-10-02T15:41:37.606Z,15.5
2022-10-02T15:45:51.938Z,13.1
2022-10-02T15:47:57.705Z,15.2
2022-10-02T15:50:03.509Z,11.4
2022-10-02T15:52:09.325Z,16.1
2022-10-02T15:54:15.129Z,16.1
2022-10-02T16:00:35.608Z,16.7
2022-10-02T16:02:41.363Z,13.6
2022-10-02T16:04:47.163Z,9
2022-10-02T16:08:58.793Z,24.1
2022-10-02T16:11:04.590Z,23.3
2022-10-02T16:13:10.405Z,15.1
2022-10-02T16:15:19.175Z,23.1
2022-10-02T16:17:25.007Z,22.7
2022-10-02T16:19:30.808Z,29.4
2022-10-02T16:21:36.607Z,8.1
2022-10-02T16:23:42.417Z,10.3
2022-10-02T16:25:48.229Z,14.5
2022-10-02T16:27:54.073Z,13.8
2022-10-02T16:30:02.822Z,36.9
2022-10-02T16:32:08.606Z,19.2
2022-10-02T16:34:14.436Z,20.1
2022-10-02T16:35:18.831Z,30.8
2022-10-02T16:37:24.651Z,25.2
2022-10-02T16:39:30.467Z,17.8
2022-10-02T16:41:36.256Z,17.9
2022-10-02T16:43:45.005Z,10.9
2022-10-02T16:45:50.879Z,16.3
2022-10-02T16:47:56.655Z,15.9
2022-10-02T16:50:02.475Z,11.1
2022-10-02T16:52:08.273Z,8.7
2022-10-02T16:54:14.094Z,19.7
2022-10-02T16:56:19.913Z,12
2022-10-02T16:58:28.667Z,12.6
2022-10-02T17:06:51.904Z,16.9
2022-10-02T17:13:12.298Z,21.9
2022-10-02T17:15:18.099Z,7.7
2022-10-02T17:17:23.933Z,11.6
2022-10-02T17:19:29.722Z,28.3
2022-10-02T17:21:35.531Z,10.9
2022-10-02T17:23:41.344Z,17.7
2022-10-02T17:25:47.144Z,13.7
2022-10-02T17:27:55.956Z,9.4
2022-10-02T17:33:11.914Z,16.1
2022-10-02T17:35:17.740Z,16.6
2022-10-02T17:37:23.535Z,19.6
2022-10-02T17:39:29.335Z,23.6
2022-10-02T17:41:38.105Z,28.8
2022-10-02T17:43:43.908Z,13.6
2022-10-02T17:45:49.769Z,19.3
2022-10-02T17:47:55.524Z,14.4
2022-10-02T17:50:01.324Z,14.2
2022-10-02T17:52:07.127Z,30.2
2022-10-02T17:54:12.948Z,26.5
2022-10-02T17:56:21.713Z,17.6
2022-10-02T17:58:27.499Z,18.9
2022-10-02T18:02:39.146Z,20.5
2022-10-02T18:04:44.911Z,15.8
2022-10-02T18:06:50.727Z,34.9
2022-10-02T18:08:56.520Z,14.2
2022-10-02T18:11:05.273Z,19.8
2022-10-02T18:15:16.865Z,14.7
2022-10-02T18:17:22.673Z,28.9
2022-10-02T18:19:28.474Z,19.5
2022-10-02T18:21:34.623Z,8.9
2022-10-02T18:23:40.081Z,21.9
2022-10-02T18:25:48.847Z,27.6
2022-10-02T18:27:54.680Z,22.8
2022-10-02T18:30:00.433Z,20.4
2022-10-02T18:32:31.822Z,11.1
2022-10-02T18:34:42.706Z,21.9
2022-10-02T18:36:43.367Z,22
2022-10-02T18:38:52.111Z,20.7
2022-10-02T18:40:57.905Z,14.5
2022-10-02T18:43:03.696Z,28.6
2022-10-02T18:45:09.508Z,34.1
2022-10-02T18:47:15.297Z,9.7
2022-10-02T18:49:21.129Z,8.9
2022-10-02T18:51:26.899Z,8.9
2022-10-02T18:53:35.668Z,22
2022-10-02T18:57:47.242Z,12.2
2022-10-02T19:01:58.902Z,9.9
2022-10-02T19:04:04.605Z,25.1
2022-10-02T19:08:20.730Z,13.5
2022-10-02T19:10:26.541Z,16.9
2022-10-02T19:12:32.309Z,25.7
2022-10-02T19:14:38.115Z,24.9
2022-10-02T19:16:43.924Z,15.4
2022-10-02T19:18:49.656Z,19.9
2022-10-02T19:20:55.440Z,9.1
2022-10-02T19:23:04.206Z,15.2
2022-10-02T19:25:09.980Z,17.7
2022-10-02T19:27:15.775Z,16.4
2022-10-02T19:28:20.234Z,17.1
2022-10-02T19:30:25.921Z,11.7
2022-10-02T19:32:31.704Z,22.1
2022-10-02T19:34:37.484Z,16.5
2022-10-02T19:36:46.254Z,21.3
2022-10-02T19:38:52.029Z,13.3
2022-10-02T19:40:57.946Z,23.7
2022-10-02T19:43:03.581Z,26.7
2022-10-02T19:45:09.368Z,14.7
2022-10-02T19:47:15.148Z,36.4
2022-10-02T19:49:20.928Z,12.6
2022-10-02T19:51:29.674Z,15.5
2022-10-02T19:55:41.255Z,28.5
2022-10-02T19:57:47.015Z,16.7
2022-10-02T19:59:52.797Z,36.8
2022-10-02T20:01:58.635Z,16.2
2022-10-02T20:08:18.864Z,16
2022-10-02T20:10:24.646Z,18.9
2022-10-02T20:12:30.469Z,17
2022-10-02T20:14:36.199Z,23.4
2022-10-02T20:18:47.775Z,15.6
2022-10-02T20:20:56.642Z,20.5
2022-10-02T20:25:08.059Z,35.6
2022-10-02T20:26:12.453Z,21.3
2022-10-02T20:28:18.303Z,18.5
2022-10-02T20:32:29.778Z,15.4
2022-10-02T20:34:38.531Z,20.1
2022-10-02T20:36:44.324Z,13.9
2022-10-02T20:38:50.100Z,14.1
2022-10-02T20:40:55.890Z,20.4
2022-10-02T20:43:01.654Z,17.4
2022-10-02T20:45:07.452Z,20.6
2022-10-02T20:47:13.220Z,13.4
2022-10-02T20:49:22.008Z,21.7
2022-10-02T20:51:27.769Z,25.8
2022-10-02T20:59:50.906Z,11.1
2022-10-02T21:01:56.719Z,18.9
2022-10-02T21:04:05.524Z,5.1
2022-10-02T21:08:16.993Z,5.8
2022-10-02T21:10:22.778Z,14.3
2022-10-02T21:12:28.540Z,14.1
2022-10-02T21:14:34.319Z,12.4
2022-10-02T21:16:40.814Z,10.9
2022-10-02T21:18:48.830Z,22.7
2022-10-02T21:20:54.592Z,21.8
2022-10-02T21:24:04.745Z,9.4
2022-10-02T21:26:10.541Z,23.1
2022-10-02T21:28:16.327Z,21.7
2022-10-02T21:30:22.066Z,19.8
2022-10-02T21:32:30.805Z,23.5
2022-10-02T21:34:36.557Z,24.6
2022-10-02T21:36:42.320Z,31.3
2022-10-02T21:38:48.111Z,17.8
2022-10-02T21:45:05.398Z,29.5
2022-10-02T21:47:14.242Z,21.8
2022-10-02T21:49:20.001Z,14.9
2022-10-02T21:51:25.860Z,18.2
2022-10-02T21:53:31.615Z,7.4
2022-10-02T21:55:37.390Z,15.7
2022-10-02T21:57:43.163Z,17.4
2022-10-02T21:59:48.924Z,21.9
2022-10-02T22:02:08.448Z,15.3
2022-10-02T22:04:03.616Z,9
2022-10-02T22:06:09.510Z,13.4
2022-10-02T22:10:21.208Z,17.6
2022-10-02T22:12:26.944Z,26
2022-10-02T22:14:32.694Z,24.9
2022-10-02T22:16:41.542Z,12.7
2022-10-02T22:18:47.406Z,20.4
2022-10-02T22:20:53.126Z,15.7
2022-10-02T22:23:18.626Z,14.9
2022-10-02T22:29:39.191Z,14.8
2022-10-02T22:31:45.029Z,14.8
2022-10-02T22:33:50.803Z,5.7
2022-10-02T22:35:56.669Z,18.5
2022-10-02T22:38:02.547Z,13.7
2022-10-02T22:40:08.282Z,14.9
2022-10-02T22:42:14.034Z,19
2022-10-02T22:44:22.994Z,24.3
2022-10-02T22:46:28.902Z,25.5
2022-10-02T22:50:40.359Z,9.2
2022-10-02T22:52:46.212Z,27.8
2022-10-02T22:54:52.082Z,15.8
2022-10-02T22:56:57.939Z,6.5
2022-10-02T22:59:06.870Z,11.8
2022-10-02T23:01:12.777Z,32.2
2022-10-02T23:03:18.577Z,11
2022-10-02T23:05:24.431Z,21.7
2022-10-02T23:13:50.810Z,13.5
2022-10-02T23:15:56.726Z,17.4
2022-10-02T23:19:07.018Z,20.1
2022-10-02T23:21:12.847Z,23.1
2022-10-02T23:23:18.683Z,12.1
2022-10-02T23:25:24.559Z,28.6
2022-10-02T23:27:33.484Z,29
2022-10-02T23:29:39.322Z,25.6
2022-10-02T23:31:45.159Z,9.6
2022-10-02T23:33:51.007Z,10.2
2022-10-02T23:35:56.865Z,10.8
2022-10-02T23:38:02.708Z,34.3
2022-10-02T23:40:08.557Z,10.6
2022-10-02T23:42:17.485Z,19.9
2022-10-02T23:44:23.325Z,12.4
2022-10-02T23:46:29.276Z,11.5
2022-10-02T23:48:34.908Z,9.8
2022-10-02T23:50:40.753Z,36.7
2022-10-02T23:52:46.590Z,34.8
2022-10-02T23:57:01.346Z,18.8
2022-10-02T23:59:07.174Z,40.8
